createdAt,value
2017-08-03T00:02:21.680Z,21.54
2017-08-03T00:04:50.330Z,21.65
2017-08-03T00:07:18.678Z,21.49
2017-08-03T00:09:47.039Z,21.55
2017-08-03T00:12:15.871Z,21.66
2017-08-03T00:14:44.203Z,21.61
2017-08-03T00:17:12.564Z,21.47
2017-08-03T00:19:41.522Z,21.54
2017-08-03T00:22:09.859Z,21.61
2017-08-03T00:24:38.200Z,21.48
2017-08-03T00:27:06.806Z,21.53
2017-08-03T00:29:35.165Z,21.42
2017-08-03T00:32:03.493Z,21.28
2017-08-03T00:34:32.402Z,21.20
2017-08-03T00:37:00.769Z,21.07
2017-08-03T00:39:29.115Z,20.93
2017-08-03T00:41:58.283Z,21.03
2017-08-03T00:44:26.637Z,21.08
2017-08-03T00:46:55.019Z,21.06
2017-08-03T00:49:23.917Z,21.12
2017-08-03T00:51:52.273Z,21.20
2017-08-03T00:54:20.613Z,21.30
2017-08-03T00:56:49.579Z,21.29
2017-08-03T00:59:17.921Z,21.17
2017-08-03T01:01:46.266Z,21.05
2017-08-03T01:04:15.222Z,20.78
2017-08-03T01:06:43.581Z,20.80
2017-08-03T01:09:12.713Z,20.69
2017-08-03T01:11:41.695Z,20.79
2017-08-03T01:14:10.066Z,21.04
2017-08-03T01:16:38.426Z,21.02
2017-08-03T01:19:07.034Z,21.10
2017-08-03T01:21:35.394Z,21.30
2017-08-03T01:24:03.736Z,21.29
2017-08-03T01:26:32.484Z,21.30
2017-08-03T01:29:00.827Z,21.30
2017-08-03T01:31:29.176Z,21.07
2017-08-03T01:33:57.830Z,21.11
2017-08-03T01:36:26.178Z,20.93
2017-08-03T01:38:55.296Z,20.63
2017-08-03T01:41:24.091Z,20.78
2017-08-03T01:43:52.448Z,20.82
2017-08-03T01:46:20.790Z,20.73
2017-08-03T01:48:49.743Z,20.80
2017-08-03T01:51:18.087Z,20.98
2017-08-03T01:53:46.430Z,20.95
2017-08-03T01:56:15.175Z,20.86
2017-08-03T01:58:43.514Z,21.02
2017-08-03T02:01:11.862Z,21.09
2017-08-03T02:03:40.481Z,21.23
2017-08-03T02:06:08.838Z,20.96
2017-08-03T02:08:37.202Z,21.05
2017-08-03T02:11:06.304Z,21.23
2017-08-03T02:13:34.657Z,21.23
2017-08-03T02:16:03.015Z,21.18
2017-08-03T02:18:31.721Z,21.18
2017-08-03T02:21:00.077Z,20.91
2017-08-03T02:23:29.194Z,20.62
2017-08-03T02:25:57.814Z,20.38
2017-08-03T02:28:26.151Z,20.18
2017-08-03T02:30:54.529Z,20.25
2017-08-03T02:33:23.654Z,20.04
2017-08-03T02:35:52.033Z,20.12
2017-08-03T02:38:20.494Z,20.20
2017-08-03T02:40:49.924Z,20.19
2017-08-03T02:43:18.269Z,20.13
2017-08-03T02:45:47.368Z,20.20
2017-08-03T02:48:16.041Z,20.25
2017-08-03T02:50:45.154Z,20.17
2017-08-03T02:53:14.269Z,20.18
2017-08-03T02:55:43.035Z,20.27
2017-08-03T02:58:11.402Z,20.13
2017-08-03T03:00:40.503Z,20.26
2017-08-03T03:03:09.950Z,20.52
2017-08-03T03:05:38.305Z,20.66
2017-08-03T03:08:06.641Z,20.69
2017-08-03T03:10:35.304Z,20.59
2017-08-03T03:13:03.657Z,20.51
2017-08-03T03:15:32.024Z,20.18
2017-08-03T03:18:00.972Z,20.14
2017-08-03T03:20:29.306Z,20.14
2017-08-03T03:22:57.650Z,20.25
2017-08-03T03:25:27.081Z,20.27
2017-08-03T03:27:55.423Z,20.26
2017-08-03T03:30:23.789Z,20.14
2017-08-03T03:32:52.435Z,20.08
2017-08-03T03:35:20.777Z,20.14
2017-08-03T03:37:49.185Z,20.18
2017-08-03T03:40:17.880Z,20.03
2017-08-03T03:42:46.241Z,19.77
2017-08-03T03:45:14.571Z,19.76
2017-08-03T03:47:43.419Z,19.90
2017-08-03T03:50:11.802Z,19.91
2017-08-03T03:52:40.156Z,19.99
2017-08-03T03:55:09.056Z,19.95
2017-08-03T03:57:37.399Z,20.14
2017-08-03T04:00:06.532Z,20.05
2017-08-03T04:02:35.229Z,20.00
2017-08-03T04:05:03.593Z,20.08
2017-08-03T04:07:31.954Z,20.10
2017-08-03T04:10:01.582Z,20.09
2017-08-03T04:12:29.917Z,20.23
2017-08-03T04:14:58.268Z,20.15
2017-08-03T04:17:26.922Z,19.99
2017-08-03T04:19:56.042Z,20.33
2017-08-03T04:22:24.411Z,20.55
2017-08-03T04:24:53.300Z,20.41
2017-08-03T04:27:21.632Z,20.44
2017-08-03T04:29:49.976Z,20.60
2017-08-03T04:32:18.605Z,20.49
2017-08-03T04:34:46.960Z,20.16
2017-08-03T04:37:15.297Z,20.26
2017-08-03T04:39:43.911Z,20.31
2017-08-03T04:42:12.262Z,20.29
2017-08-03T04:44:40.610Z,20.46
2017-08-03T04:47:09.463Z,20.42
2017-08-03T04:49:38.137Z,20.47
2017-08-03T04:52:06.472Z,20.62
2017-08-03T04:54:35.902Z,20.54
2017-08-03T04:57:04.258Z,20.29
2017-08-03T04:59:33.366Z,20.47
2017-08-03T05:02:02.775Z,20.37
2017-08-03T05:04:31.125Z,20.53
2017-08-03T05:06:59.471Z,20.30
2017-08-03T05:09:28.304Z,20.52
2017-08-03T05:11:57.405Z,20.61
2017-08-03T05:14:26.523Z,20.68
2017-08-03T05:16:55.292Z,20.56
2017-08-03T05:19:23.638Z,20.66
2017-08-03T05:21:52.008Z,20.66
2017-08-03T05:24:20.723Z,20.36
2017-08-03T05:26:49.070Z,20.28
2017-08-03T05:29:17.804Z,20.43
2017-08-03T05:31:47.428Z,20.43
2017-08-03T05:34:15.792Z,20.41
2017-08-03T05:36:44.905Z,20.54
2017-08-03T05:39:13.592Z,20.70
2017-08-03T05:41:41.915Z,20.77
2017-08-03T05:44:10.253Z,20.89
2017-08-03T05:46:38.976Z,20.83
2017-08-03T05:49:07.357Z,20.75
2017-08-03T05:51:35.715Z,20.78
2017-08-03T05:54:04.817Z,20.66
2017-08-03T05:56:33.170Z,20.73
2017-08-03T05:59:01.526Z,20.49
2017-08-03T06:01:30.430Z,20.68
2017-08-03T06:03:58.766Z,20.72
2017-08-03T06:06:27.123Z,20.62
2017-08-03T06:08:55.785Z,20.52
2017-08-03T06:11:24.195Z,20.58
2017-08-03T06:13:52.536Z,20.83
2017-08-03T06:16:21.536Z,20.86
2017-08-03T06:18:49.906Z,20.95
2017-08-03T06:21:18.246Z,20.81
2017-08-03T06:23:46.908Z,20.89
2017-08-03T06:26:15.264Z,21.22
2017-08-03T06:28:43.611Z,21.07
2017-08-03T06:31:12.240Z,21.18
2017-08-03T06:33:40.591Z,21.34
2017-08-03T06:36:08.938Z,21.09
2017-08-03T06:38:37.745Z,21.13
2017-08-03T06:41:06.862Z,21.41
2017-08-03T06:43:35.257Z,21.52
2017-08-03T06:46:04.176Z,21.17
2017-08-03T06:48:32.536Z,21.17
2017-08-03T06:51:00.870Z,21.41
2017-08-03T06:53:29.486Z,21.47
2017-08-03T06:55:57.839Z,21.11
2017-08-03T06:58:26.207Z,21.16
2017-08-03T07:00:55.849Z,21.32
2017-08-03T07:03:24.194Z,21.72
2017-08-03T07:05:52.556Z,21.94
2017-08-03T07:08:21.295Z,22.11
2017-08-03T07:10:49.642Z,22.02
2017-08-03T07:13:18.799Z,22.06
2017-08-03T07:15:47.476Z,21.89
2017-08-03T07:18:15.824Z,21.79
2017-08-03T07:20:44.167Z,21.66
2017-08-03T07:23:13.258Z,21.63
2017-08-03T07:25:47.159Z,21.53
2017-08-03T07:28:15.897Z,21.29
2017-08-03T07:30:44.251Z,21.35
2017-08-03T07:33:13.500Z,21.09
2017-08-03T07:35:42.263Z,21.24
2017-08-03T07:38:10.602Z,21.46
2017-08-03T07:40:38.949Z,21.51
2017-08-03T07:43:07.712Z,21.42
2017-08-03T07:45:36.080Z,21.49
2017-08-03T07:48:04.490Z,21.50
2017-08-03T07:50:33.160Z,21.75
2017-08-03T07:53:01.560Z,21.73
2017-08-03T07:55:29.919Z,22.20
2017-08-03T07:57:58.706Z,22.62
2017-08-03T08:00:27.122Z,22.99
2017-08-03T08:02:55.514Z,23.15
2017-08-03T08:05:24.316Z,23.39
2017-08-03T08:07:52.697Z,23.08
2017-08-03T08:10:21.129Z,22.89
2017-08-03T08:12:49.881Z,23.31
2017-08-03T08:15:18.298Z,23.40
2017-08-03T08:17:46.673Z,23.88
2017-08-03T08:20:15.521Z,23.71
2017-08-03T08:22:43.888Z,23.41
2017-08-03T08:25:12.243Z,23.28
2017-08-03T08:27:41.041Z,23.60
2017-08-03T08:30:09.431Z,23.83
2017-08-03T08:32:37.796Z,23.69
2017-08-03T08:35:06.577Z,24.41
2017-08-03T08:37:34.980Z,24.88
2017-08-03T08:40:03.433Z,24.71
2017-08-03T08:42:32.088Z,25.01
2017-08-03T08:45:00.510Z,25.09
2017-08-03T08:47:28.937Z,25.28
2017-08-03T08:49:57.810Z,25.54
2017-08-03T08:52:26.200Z,25.67
2017-08-03T08:54:55.429Z,25.13
2017-08-03T08:57:24.357Z,24.93
2017-08-03T08:59:52.758Z,24.67
2017-08-03T09:02:21.215Z,25.41
2017-08-03T09:04:49.874Z,25.66
2017-08-03T09:07:18.267Z,26.05
2017-08-03T09:09:46.685Z,26.14
2017-08-03T09:12:15.579Z,26.21
2017-08-03T09:14:43.943Z,26.75
2017-08-03T09:17:12.343Z,26.96
2017-08-03T09:19:41.094Z,27.49
2017-08-03T09:22:09.438Z,27.04
2017-08-03T09:24:37.879Z,27.10
2017-08-03T09:27:06.606Z,26.73
2017-08-03T09:29:34.953Z,26.65
2017-08-03T09:32:03.341Z,26.72
2017-08-03T09:34:32.973Z,26.77
2017-08-03T09:37:01.400Z,27.27
2017-08-03T09:39:29.781Z,27.06
2017-08-03T09:41:58.554Z,27.20
2017-08-03T09:44:26.965Z,27.17
2017-08-03T09:46:55.310Z,26.82
2017-08-03T09:49:24.059Z,27.19
2017-08-03T09:51:52.415Z,27.21
2017-08-03T09:54:20.783Z,27.09
2017-08-03T09:56:49.704Z,27.45
2017-08-03T09:59:18.059Z,27.73
2017-08-03T10:01:46.393Z,28.28
2017-08-03T10:04:15.368Z,28.58
2017-08-03T10:06:43.766Z,28.95
2017-08-03T10:09:12.134Z,28.83
2017-08-03T10:11:40.818Z,28.67
2017-08-03T10:14:09.170Z,29.70
2017-08-03T10:16:38.281Z,29.02
2017-08-03T10:19:07.148Z,29.36
2017-08-03T10:21:36.262Z,29.58
2017-08-03T10:24:05.379Z,28.58
2017-08-03T10:26:34.066Z,28.88
2017-08-03T10:29:02.418Z,28.77
2017-08-03T10:31:30.855Z,29.07
2017-08-03T10:33:59.612Z,29.27
2017-08-03T10:36:28.004Z,28.64
2017-08-03T10:38:56.398Z,28.92
2017-08-03T10:41:25.543Z,28.46
2017-08-03T10:43:53.935Z,28.76
2017-08-03T10:46:22.277Z,28.30
2017-08-03T10:48:50.930Z,28.34
2017-08-03T10:51:19.275Z,28.50
2017-08-03T10:53:47.636Z,28.97
2017-08-03T10:56:16.369Z,29.11
2017-08-03T10:58:44.715Z,29.18
2017-08-03T11:01:13.131Z,29.32
2017-08-03T11:03:42.030Z,29.26
2017-08-03T11:06:10.421Z,28.76
2017-08-03T11:08:38.822Z,28.64
2017-08-03T11:11:07.526Z,29.27
2017-08-03T11:13:35.883Z,29.38
2017-08-03T11:16:04.227Z,29.28
2017-08-03T11:18:32.902Z,28.82
2017-08-03T11:21:01.243Z,28.47
2017-08-03T11:23:30.362Z,28.04
2017-08-03T11:25:59.071Z,27.90
2017-08-03T11:28:27.405Z,28.59
2017-08-03T11:30:55.882Z,28.17
2017-08-03T11:33:24.726Z,28.24
2017-08-03T11:35:53.079Z,28.38
2017-08-03T11:38:21.500Z,28.57
2017-08-03T11:40:50.125Z,28.79
2017-08-03T11:43:19.307Z,29.53
2017-08-03T11:45:47.693Z,30.53
2017-08-03T11:48:16.712Z,30.43
2017-08-03T11:50:45.328Z,30.71
2017-08-03T11:53:13.651Z,30.56
2017-08-03T11:55:42.344Z,30.91
2017-08-03T11:58:10.685Z,30.50
2017-08-03T12:00:39.039Z,30.48
2017-08-03T12:03:07.754Z,30.56
2017-08-03T12:05:36.204Z,30.54
2017-08-03T12:08:04.808Z,29.53
2017-08-03T12:10:33.765Z,28.90
2017-08-03T12:13:02.179Z,28.95
2017-08-03T12:15:30.519Z,29.23
2017-08-03T12:17:59.320Z,29.14
2017-08-03T12:20:27.693Z,29.42
2017-08-03T12:22:56.137Z,28.74
2017-08-03T12:25:25.606Z,29.01
2017-08-03T12:27:53.966Z,28.60
2017-08-03T12:30:22.345Z,28.53
2017-08-03T12:32:51.427Z,28.28
2017-08-03T12:35:19.810Z,28.49
2017-08-03T12:37:48.210Z,28.74
2017-08-03T12:40:16.995Z,28.50
2017-08-03T12:42:45.385Z,29.06
2017-08-03T12:45:13.801Z,29.23
2017-08-03T12:47:42.606Z,29.41
2017-08-03T12:50:10.986Z,29.42
2017-08-03T12:52:39.791Z,29.03
2017-08-03T12:55:08.796Z,28.69
2017-08-03T12:57:37.152Z,28.59
2017-08-03T13:00:06.300Z,28.63
2017-08-03T13:02:35.263Z,28.84
2017-08-03T13:05:03.602Z,28.77
2017-08-03T13:07:31.944Z,28.54
2017-08-03T13:10:00.577Z,28.53
2017-08-03T13:12:28.937Z,27.97
2017-08-03T13:14:57.269Z,28.03
2017-08-03T13:17:26.085Z,28.03
2017-08-03T13:19:54.729Z,28.07
2017-08-03T13:22:23.155Z,28.53
2017-08-03T13:24:52.094Z,28.66
2017-08-03T13:27:20.459Z,29.12
2017-08-03T13:29:48.855Z,28.96
2017-08-03T13:32:18.425Z,29.64
2017-08-03T13:34:46.872Z,29.56
2017-08-03T13:37:15.301Z,29.63
2017-08-03T13:39:45.435Z,29.51
2017-08-03T13:42:14.591Z,28.92
2017-08-03T13:44:42.981Z,28.66
2017-08-03T13:47:11.895Z,28.60
2017-08-03T13:49:40.284Z,28.77
2017-08-03T13:52:08.650Z,28.74
2017-08-03T13:54:38.133Z,28.93
2017-08-03T13:57:06.539Z,29.07
2017-08-03T13:59:34.902Z,29.49
2017-08-03T14:02:04.194Z,29.46
2017-08-03T14:04:32.561Z,29.76
2017-08-03T14:07:00.935Z,30.07
2017-08-03T14:09:30.503Z,29.95
2017-08-03T14:11:58.856Z,29.44
2017-08-03T14:14:27.255Z,29.09
2017-08-03T14:16:56.045Z,29.09
2017-08-03T14:19:24.409Z,29.31
2017-08-03T14:21:52.791Z,29.77
2017-08-03T14:24:21.765Z,29.84
2017-08-03T14:26:50.153Z,30.32
2017-08-03T14:29:18.489Z,30.02
2017-08-03T14:31:47.234Z,29.57
2017-08-03T14:34:15.590Z,29.60
2017-08-03T14:36:44.084Z,29.54
2017-08-03T14:39:12.896Z,29.43
2017-08-03T14:41:41.364Z,29.55
2017-08-03T14:44:09.845Z,29.62
2017-08-03T14:46:39.137Z,29.85
2017-08-03T14:49:07.490Z,29.57
2017-08-03T14:51:35.884Z,29.29
2017-08-03T14:54:04.547Z,29.20
2017-08-03T14:56:32.978Z,29.43
2017-08-03T14:59:01.343Z,28.86
2017-08-03T15:01:30.277Z,29.15
2017-08-03T15:03:58.664Z,29.03
2017-08-03T15:06:27.021Z,28.61
2017-08-03T15:08:55.818Z,28.70
2017-08-03T15:11:24.152Z,28.84
2017-08-03T15:13:52.521Z,28.58
2017-08-03T15:16:21.152Z,28.41
2017-08-03T15:18:49.508Z,28.16
2017-08-03T15:21:17.874Z,28.27
2017-08-03T15:23:46.756Z,28.14
2017-08-03T15:26:15.125Z,28.24
2017-08-03T15:28:43.495Z,27.96
2017-08-03T15:31:12.396Z,28.36
2017-08-03T15:33:40.862Z,28.43
2017-08-03T15:36:09.318Z,28.61
2017-08-03T15:38:38.115Z,29.07
2017-08-03T15:41:06.449Z,28.65
2017-08-03T15:43:34.788Z,28.06
2017-08-03T15:46:03.455Z,27.56
2017-08-03T15:48:31.811Z,27.68
2017-08-03T15:51:00.924Z,27.80
2017-08-03T15:53:29.753Z,28.00
2017-08-03T15:55:58.185Z,27.71
2017-08-03T15:58:26.520Z,27.83
2017-08-03T16:00:55.180Z,28.17
2017-08-03T16:03:23.553Z,27.91
2017-08-03T16:05:51.891Z,27.91
2017-08-03T16:08:20.597Z,27.68
2017-08-03T16:10:48.948Z,27.63
2017-08-03T16:13:17.306Z,27.71
2017-08-03T16:15:46.293Z,27.87
2017-08-03T16:18:14.654Z,28.12
2017-08-03T16:20:43.012Z,27.81
2017-08-03T16:23:11.686Z,27.93
2017-08-03T16:25:40.025Z,28.05
2017-08-03T16:28:08.378Z,28.05
2017-08-03T16:30:37.063Z,27.77
2017-08-03T16:33:05.414Z,27.82
2017-08-03T16:35:33.783Z,28.01
2017-08-03T16:38:03.547Z,27.84
2017-08-03T16:40:31.895Z,27.54
2017-08-03T16:43:00.257Z,27.31
2017-08-03T16:45:29.674Z,27.28
2017-08-03T16:47:58.046Z,27.17
2017-08-03T16:50:27.173Z,27.49
2017-08-03T16:52:55.994Z,27.65
2017-08-03T16:55:24.452Z,27.30
2017-08-03T16:57:52.892Z,27.14
2017-08-03T17:00:21.751Z,27.00
2017-08-03T17:02:50.233Z,27.42
2017-08-03T17:05:18.608Z,27.84
2017-08-03T17:07:47.281Z,27.40
2017-08-03T17:10:15.678Z,27.63
2017-08-03T17:12:44.034Z,27.44
2017-08-03T17:15:12.733Z,27.25
2017-08-03T17:17:41.081Z,27.45
2017-08-03T17:20:09.499Z,27.20
2017-08-03T17:22:38.349Z,27.13
2017-08-03T17:25:06.693Z,27.12
2017-08-03T17:27:35.821Z,26.91
2017-08-03T17:30:04.507Z,26.94
2017-08-03T17:32:32.885Z,26.83
2017-08-03T17:35:01.244Z,26.75
2017-08-03T17:37:30.126Z,26.76
2017-08-03T17:39:59.299Z,26.94
2017-08-03T17:42:27.663Z,26.98
2017-08-03T17:44:56.697Z,27.06
2017-08-03T17:47:25.047Z,27.18
2017-08-03T17:49:53.392Z,27.19
2017-08-03T17:52:23.029Z,27.16
2017-08-03T17:54:51.653Z,27.02
2017-08-03T17:57:20.009Z,26.94
2017-08-03T17:59:48.731Z,26.67
2017-08-03T18:02:17.093Z,26.70
2017-08-03T18:04:45.442Z,26.72
2017-08-03T18:07:14.460Z,26.60
2017-08-03T18:09:42.821Z,26.63
2017-08-03T18:12:11.290Z,26.78
2017-08-03T18:14:40.339Z,26.93
2017-08-03T18:17:08.739Z,26.82
2017-08-03T18:19:37.170Z,26.84
2017-08-03T18:22:06.094Z,26.83
2017-08-03T18:24:34.561Z,26.81
2017-08-03T18:27:02.930Z,26.73
2017-08-03T18:29:31.890Z,26.80
2017-08-03T18:32:00.309Z,26.66
2017-08-03T18:34:28.728Z,26.61
2017-08-03T18:36:57.464Z,26.59
2017-08-03T18:39:25.826Z,26.49
2017-08-03T18:41:54.193Z,26.45
2017-08-03T18:44:22.879Z,26.37
2017-08-03T18:46:51.233Z,26.20
2017-08-03T18:49:19.647Z,25.98
2017-08-03T18:51:48.675Z,25.51
2017-08-03T18:54:17.794Z,25.27
2017-08-03T18:56:46.186Z,25.47
2017-08-03T18:59:15.074Z,25.41
2017-08-03T19:01:43.422Z,25.28
2017-08-03T19:04:11.802Z,25.27
2017-08-03T19:06:40.454Z,25.43
2017-08-03T19:09:08.825Z,25.43
2017-08-03T19:11:37.248Z,25.33
2017-08-03T19:14:06.005Z,25.23
2017-08-03T19:16:34.507Z,25.22
2017-08-03T19:19:02.938Z,25.22
2017-08-03T19:21:31.693Z,25.16
2017-08-03T19:24:00.942Z,25.09
2017-08-03T19:26:29.439Z,25.02
2017-08-03T19:28:58.252Z,24.80
2017-08-03T19:31:26.631Z,24.78
2017-08-03T19:33:55.822Z,24.58
2017-08-03T19:36:24.822Z,24.45
2017-08-03T19:38:53.193Z,24.32
2017-08-03T19:41:21.570Z,24.39
2017-08-03T19:43:50.251Z,24.08
2017-08-03T19:46:18.655Z,23.99
2017-08-03T19:48:47.089Z,24.02
2017-08-03T19:51:15.880Z,24.07
2017-08-03T19:53:44.275Z,23.97
2017-08-03T19:56:12.681Z,23.95
2017-08-03T19:58:41.844Z,23.95
2017-08-03T20:01:11.249Z,24.00
2017-08-03T20:03:39.754Z,23.73
2017-08-03T20:06:08.433Z,23.88
2017-08-03T20:08:39.853Z,23.74
2017-08-03T20:11:16.231Z,23.78
2017-08-03T20:13:45.428Z,23.60
2017-08-03T20:16:13.834Z,23.60
2017-08-03T20:18:42.993Z,23.41
2017-08-03T20:21:11.395Z,23.47
2017-08-03T20:23:39.822Z,23.51
2017-08-03T20:26:08.480Z,23.40
2017-08-03T20:28:36.920Z,23.33
2017-08-03T20:31:05.267Z,23.35
2017-08-03T20:33:33.940Z,23.32
2017-08-03T20:36:02.281Z,23.16
2017-08-03T20:38:30.663Z,23.32
2017-08-03T20:40:59.416Z,23.42
2017-08-03T20:43:27.801Z,23.23
2017-08-03T20:45:56.244Z,23.35
2017-08-03T20:48:25.780Z,23.18
2017-08-03T20:50:54.196Z,23.38
2017-08-03T20:53:22.597Z,23.07
2017-08-03T20:55:51.240Z,23.24
2017-08-03T20:58:19.581Z,23.34
2017-08-03T21:00:47.911Z,23.18
2017-08-03T21:03:16.773Z,23.36
2017-08-03T21:05:45.134Z,23.55
2017-08-03T21:08:13.472Z,23.69
2017-08-03T21:10:42.166Z,23.58
2017-08-03T21:13:10.496Z,23.49
2017-08-03T21:15:38.851Z,23.56
2017-08-03T21:18:08.370Z,23.46
2017-08-03T21:20:36.727Z,23.50
2017-08-03T21:23:05.075Z,23.60
2017-08-03T21:25:34.129Z,23.65
2017-08-03T21:28:02.462Z,23.53
2017-08-03T21:30:30.821Z,23.52
2017-08-03T21:32:59.614Z,23.56
2017-08-03T21:35:27.961Z,23.42
2017-08-03T21:37:56.298Z,23.16
2017-08-03T21:40:25.027Z,23.29
2017-08-03T21:42:53.367Z,23.08
2017-08-03T21:45:21.703Z,22.97
2017-08-03T21:47:50.471Z,22.86
2017-08-03T21:50:18.825Z,22.95
2017-08-03T21:52:47.957Z,22.88
2017-08-03T21:55:16.604Z,22.56
2017-08-03T21:57:45.721Z,22.56
2017-08-03T22:00:14.058Z,22.53
2017-08-03T22:02:42.709Z,22.28
2017-08-03T22:05:11.060Z,22.44
2017-08-03T22:07:39.406Z,22.63
2017-08-03T22:10:08.132Z,22.68
2017-08-03T22:12:36.483Z,22.67
2017-08-03T22:15:04.817Z,22.48
2017-08-03T22:17:33.467Z,22.31
2017-08-03T22:20:01.822Z,22.44
2017-08-03T22:22:30.951Z,22.47
2017-08-03T22:25:00.282Z,22.32
2017-08-03T22:27:28.633Z,22.35
2017-08-03T22:29:56.963Z,22.49
2017-08-03T22:32:26.142Z,22.35
2017-08-03T22:34:54.484Z,22.10
2017-08-03T22:37:22.817Z,21.94
2017-08-03T22:39:51.651Z,22.08
2017-08-03T22:42:19.970Z,22.04
2017-08-03T22:44:48.310Z,21.86
2017-08-03T22:47:16.934Z,21.88
2017-08-03T22:49:45.280Z,21.96
2017-08-03T22:52:13.627Z,21.93
2017-08-03T22:54:42.379Z,21.98
2017-08-03T22:57:10.722Z,22.13
2017-08-03T22:59:39.082Z,21.84
2017-08-03T23:02:07.719Z,21.82
2017-08-03T23:04:36.054Z,21.81
2017-08-03T23:07:04.400Z,21.74
2017-08-03T23:09:33.221Z,21.64
2017-08-03T23:12:01.546Z,21.64
2017-08-03T23:14:29.878Z,21.85
2017-08-03T23:16:58.867Z,21.78
2017-08-03T23:19:27.221Z,21.72
2017-08-03T23:21:55.571Z,21.49
2017-08-03T23:24:24.334Z,21.58
2017-08-03T23:26:52.678Z,21.39
2017-08-03T23:29:21.782Z,21.31
2017-08-03T23:31:51.145Z,21.26
2017-08-03T23:34:19.483Z,21.32
2017-08-03T23:36:47.829Z,21.30
2017-08-03T23:39:16.856Z,21.25
2017-08-03T23:41:45.206Z,21.23
2017-08-03T23:44:13.549Z,21.10
2017-08-03T23:46:42.278Z,21.22
2017-08-03T23:49:10.639Z,21.00
2017-08-03T23:51:38.971Z,21.21
2017-08-03T23:54:07.744Z,21.27
2017-08-03T23:56:36.095Z,21.03
2017-08-03T23:59:04.440Z,20.87
